createdAt,value
2023-01-17T01:56:10.315Z,-1.91
2023-01-17T01:58:37.445Z,-1.82
2023-01-17T02:01:05.950Z,-1.75
2023-01-17T02:03:33.022Z,-1.70
2023-01-17T02:06:19.329Z,-1.67
2023-01-17T02:08:47.612Z,-1.62
2023-01-17T02:11:14.608Z,-1.56
2023-01-17T02:13:42.507Z,-1.51
2023-01-17T02:16:32.954Z,-1.46
2023-01-17T02:19:24.641Z,-1.41
2023-01-17T02:22:06.983Z,-1.36
2023-01-17T02:25:12.477Z,-1.31
2023-01-17T02:27:53.444Z,-1.26
2023-01-17T02:30:41.335Z,-1.23
2023-01-17T02:33:28.804Z,-1.28
2023-01-17T02:36:16.887Z,-1.29
2023-01-17T02:38:50.522Z,-1.28
2023-01-17T02:41:18.999Z,-1.30
2023-01-17T02:43:46.722Z,-1.28
2023-01-17T02:46:13.606Z,-1.24
2023-01-17T02:48:40.882Z,-1.22
2023-01-17T02:51:17.295Z,-1.24
2023-01-17T02:54:11.548Z,-1.31
2023-01-17T02:57:09.397Z,-1.36
2023-01-17T02:59:47.122Z,-1.38
2023-01-17T03:02:48.811Z,-1.40
2023-01-17T03:05:23.137Z,-1.42
2023-01-17T03:07:50.696Z,-1.43
2023-01-17T03:10:18.037Z,-1.43
2023-01-17T03:12:45.377Z,-1.42
2023-01-17T03:15:14.012Z,-1.43
2023-01-17T03:17:44.977Z,-1.43
2023-01-17T03:20:12.498Z,-1.42
2023-01-17T03:22:39.617Z,-1.42
2023-01-17T03:25:06.754Z,-1.43
2023-01-17T03:27:35.275Z,-1.43
2023-01-17T03:30:02.183Z,-1.45
2023-01-17T03:32:29.357Z,-1.48
2023-01-17T03:34:56.270Z,-1.50
2023-01-17T03:37:24.327Z,-1.51
2023-01-17T03:39:51.144Z,-1.51
2023-01-17T03:42:19.980Z,-1.51
2023-01-17T03:44:47.187Z,-1.47
2023-01-17T03:47:14.999Z,-1.43
2023-01-17T03:49:44.903Z,-1.43
2023-01-17T03:52:12.059Z,-1.41
2023-01-17T03:54:38.877Z,-1.41
2023-01-17T03:57:05.747Z,-1.37
2023-01-17T03:59:33.607Z,-1.37
2023-01-17T04:02:00.714Z,-1.39
2023-01-17T04:04:27.664Z,-1.40
2023-01-17T04:06:54.907Z,-1.40
2023-01-17T04:09:21.811Z,-1.40
2023-01-17T04:11:50.538Z,-1.40
2023-01-17T04:14:18.396Z,-1.40
2023-01-17T04:16:45.848Z,-1.39
2023-01-17T04:19:12.780Z,-1.40
2023-01-17T04:21:39.698Z,-1.39
2023-01-17T04:24:07.071Z,-1.39
2023-01-17T04:26:34.881Z,-1.38
2023-01-17T04:29:02.184Z,-1.38
2023-01-17T04:31:54.647Z,-1.38
2023-01-17T04:34:21.664Z,-1.37
2023-01-17T04:36:48.568Z,-1.36
2023-01-17T04:39:15.536Z,-1.33
2023-01-17T04:41:44.964Z,-1.32
2023-01-17T04:44:12.027Z,-1.30
2023-01-17T04:46:40.845Z,-1.29
2023-01-17T04:49:10.508Z,-1.27
2023-01-17T04:51:37.374Z,-1.27
2023-01-17T04:54:07.509Z,-1.26
2023-01-17T04:56:34.319Z,-1.26
2023-01-17T04:59:01.570Z,-1.27
2023-01-17T05:01:35.003Z,-1.25
2023-01-17T05:04:01.967Z,-1.24
2023-01-17T05:06:35.076Z,-1.24
2023-01-17T05:09:02.369Z,-1.24
2023-01-17T05:11:30.881Z,-1.25
2023-01-17T05:13:57.785Z,-1.25
2023-01-17T05:16:24.752Z,-1.24
2023-01-17T05:18:58.132Z,-1.24
2023-01-17T05:21:25.556Z,-1.23
2023-01-17T05:23:52.507Z,-1.20
2023-01-17T05:26:19.508Z,-1.19
2023-01-17T05:28:46.458Z,-1.18
2023-01-17T05:31:16.649Z,-1.15
2023-01-17T05:33:43.520Z,-1.10
2023-01-17T05:36:10.322Z,-1.05
2023-01-17T05:38:37.369Z,-1.04
2023-01-17T05:41:04.742Z,-1.04
2023-01-17T05:43:32.088Z,-1.05
2023-01-17T05:45:59.121Z,-1.05
2023-01-17T05:48:25.935Z,-1.04
2023-01-17T05:50:54.259Z,-1.03
2023-01-17T05:53:21.640Z,-1.01
2023-01-17T05:55:49.208Z,-0.97
2023-01-17T05:58:17.758Z,-0.96
2023-01-17T06:00:45.198Z,-0.93
2023-01-17T06:03:12.341Z,-0.90
2023-01-17T06:05:40.263Z,-0.87
2023-01-17T06:08:07.760Z,-0.82
2023-01-17T06:10:36.910Z,-0.78
2023-01-17T06:13:38.166Z,-0.76
2023-01-17T06:16:06.378Z,-0.73
2023-01-17T06:18:33.465Z,-0.71
2023-01-17T06:28:39.349Z,-0.53
2023-01-17T06:31:09.125Z,-0.50
2023-01-17T06:33:36.467Z,-0.45
2023-01-17T06:36:03.892Z,-0.39
2023-01-17T06:39:21.674Z,-0.32
2023-01-17T06:41:48.682Z,-0.21
2023-01-17T06:44:15.635Z,-0.14
2023-01-17T06:46:43.650Z,-0.06
2023-01-17T06:49:10.724Z,0.04
2023-01-17T06:51:37.776Z,0.15
2023-01-17T06:54:04.928Z,0.26
2023-01-17T06:56:36.358Z,0.35
2023-01-17T06:59:03.553Z,0.41
2023-01-17T07:01:31.202Z,0.43
2023-01-17T07:03:59.303Z,0.43
2023-01-17T07:06:29.050Z,0.43
2023-01-17T13:01:39.288Z,3.65
2023-01-17T13:04:28.349Z,3.71
2023-01-17T13:06:58.442Z,3.76
2023-01-17T13:09:34.996Z,3.81
2023-01-17T13:12:05.115Z,3.84
2023-01-17T13:14:33.049Z,3.86
2023-01-17T13:17:46.907Z,3.88
2023-01-17T13:20:36.934Z,3.90
2023-01-17T13:23:29.168Z,3.90
2023-01-17T13:25:57.829Z,3.92
2023-01-17T13:29:00.355Z,3.91
2023-01-17T13:31:56.684Z,3.91
2023-01-17T13:34:54.931Z,3.89
2023-01-17T13:38:08.941Z,3.90
2023-01-17T13:41:15.262Z,3.90
2023-01-17T13:44:06.390Z,3.90
2023-01-17T13:47:00.696Z,3.91
2023-01-17T13:49:36.533Z,3.90
2023-01-17T13:52:11.766Z,3.89
2023-01-17T13:54:55.831Z,3.87
2023-01-17T13:57:22.739Z,3.85
2023-01-17T13:59:49.801Z,3.83
2023-01-17T14:02:32.203Z,3.81
2023-01-17T14:05:18.349Z,3.80
2023-01-17T14:07:54.789Z,3.78
2023-01-17T14:10:46.658Z,3.78
2023-01-17T14:13:34.571Z,3.76
2023-01-17T14:16:02.748Z,3.75
2023-01-17T14:18:40.276Z,3.73
2023-01-17T14:21:29.760Z,3.73
2023-01-17T14:24:13.280Z,3.72
2023-01-17T14:26:41.533Z,3.73
2023-01-17T14:29:44.050Z,3.72
2023-01-17T14:32:24.777Z,3.71
2023-01-17T14:35:21.101Z,3.70
2023-01-17T14:37:51.230Z,3.69
2023-01-17T14:41:12.078Z,3.69
2023-01-17T14:43:41.617Z,3.67
2023-01-17T14:46:17.269Z,3.67
2023-01-17T14:48:44.408Z,3.68
2023-01-17T14:51:13.305Z,3.68
2023-01-17T14:53:40.772Z,3.70
2023-01-17T14:56:15.761Z,3.72
2023-01-17T14:58:46.758Z,3.74
2023-01-17T15:01:20.564Z,3.74
2023-01-17T15:03:53.616Z,3.77
2023-01-17T15:06:24.954Z,3.77
2023-01-17T15:08:54.978Z,3.79
2023-01-17T15:11:24.969Z,3.80
2023-01-17T15:13:55.015Z,3.80
2023-01-17T15:16:24.828Z,3.79
2023-01-17T15:18:53.237Z,3.75
2023-01-17T15:21:22.042Z,3.73
2023-01-17T15:23:54.593Z,3.73
2023-01-17T15:26:24.036Z,3.74
2023-01-17T15:28:52.277Z,3.74
2023-01-17T15:31:49.583Z,3.75
2023-01-17T15:35:08.357Z,3.76
2023-01-17T15:37:37.352Z,3.74
2023-01-17T15:40:18.117Z,3.74
2023-01-17T15:42:47.863Z,3.73
2023-01-17T15:45:16.872Z,3.73
2023-01-17T15:47:47.801Z,3.74
2023-01-17T15:53:32.520Z,3.80
2023-01-17T15:56:01.465Z,3.82
2023-01-17T15:58:30.234Z,3.83
2023-01-17T16:00:57.587Z,3.82
2023-01-17T16:03:28.019Z,3.81
2023-01-17T16:05:57.949Z,3.81
2023-01-17T16:08:38.843Z,3.81
2023-01-17T16:11:07.103Z,3.81
2023-01-17T21:37:26.538Z,3.57
2023-01-17T21:40:03.076Z,3.66
2023-01-17T21:42:34.317Z,3.75
2023-01-17T21:45:04.792Z,3.81
2023-01-17T21:47:35.782Z,3.84
2023-01-17T21:50:05.776Z,3.87
2023-01-17T21:52:33.589Z,3.90
2023-01-17T21:55:24.234Z,3.94
2023-01-17T21:58:11.496Z,3.99
2023-01-17T22:00:43.046Z,4.02
2023-01-17T22:03:11.044Z,4.03
2023-01-17T22:06:29.343Z,4.07
2023-01-17T22:08:56.711Z,4.12
2023-01-17T22:11:31.215Z,4.14
2023-01-17T22:13:59.500Z,4.15
2023-01-17T22:16:26.927Z,4.15
2023-01-17T22:18:54.025Z,4.15
2023-01-17T22:21:26.410Z,4.15
2023-01-17T22:23:55.061Z,4.16
2023-01-17T22:26:24.153Z,4.16
2023-01-17T22:28:51.463Z,4.18
2023-01-17T22:31:44.426Z,4.19
2023-01-17T22:34:13.168Z,4.19
2023-01-17T22:36:46.115Z,4.20
2023-01-17T22:39:13.252Z,4.19
2023-01-17T22:42:10.235Z,4.19
2023-01-17T22:44:38.122Z,4.19
2023-01-17T22:47:05.826Z,4.19
2023-01-17T22:49:35.803Z,4.20
2023-01-17T22:52:03.276Z,4.22
2023-01-17T22:54:31.850Z,4.23
2023-01-17T22:56:59.076Z,4.26
2023-01-17T22:59:26.741Z,4.29
2023-01-17T23:01:53.833Z,4.28
2023-01-17T23:04:20.920Z,4.28
2023-01-17T23:06:47.939Z,4.30
2023-01-17T23:09:15.429Z,4.30
2023-01-17T23:11:48.851Z,4.29
2023-01-17T23:14:19.945Z,4.29
2023-01-17T23:17:30.946Z,4.29
2023-01-17T23:20:23.307Z,4.29
2023-01-17T23:22:50.695Z,4.28
2023-01-17T23:25:17.810Z,4.30
2023-01-17T23:28:04.554Z,4.33
2023-01-17T23:30:35.986Z,4.33
2023-01-17T23:33:05.316Z,4.33
2023-01-17T23:35:34.992Z,4.34
2023-01-17T23:38:21.622Z,4.34
2023-01-17T23:41:08.865Z,4.34
2023-01-17T23:43:36.257Z,4.32
2023-01-17T23:46:05.403Z,4.31
2023-01-17T23:48:33.172Z,4.30
2023-01-17T23:51:09.538Z,4.31
2023-01-17T23:53:37.619Z,4.33
2023-01-17T23:56:07.001Z,4.33
2023-01-17T23:58:34.508Z,4.34
